Aerocampo CSA airport


Codes: CSA/
Name: Aerocampo CSA airport
City: Calchin
Country: Argentina
Elevation: 630 ft.

Photos at Aerocampo CSA airport


   Photos courtesy of SpottingLog. You can add your own sightings and photos by signing up for a free trial today.



No photos found.

Weather at Aerocampo CSA airport


Time (UTC)DescriptionTempratureWindCloud coverageVisibilityPressureHumidity
25-Jun-2024 21:00Overcast Clouds7°C4 mph, E100%10000m1024hPa78%
26-Jun-2024 00:00Overcast Clouds7°C2 mph, E99%10000m1025hPa83%
26-Jun-2024 03:00Scattered Clouds5°C4 mph, N47%10000m1025hPa88%
26-Jun-2024 06:00Few Clouds3°C7 mph, NW12%10000m1024hPa93%
26-Jun-2024 09:00Clear Sky2°C7 mph, N9%10000m1022hPa94%
26-Jun-2024 12:00Clear Sky3°C7 mph, NW5%10000m1023hPa93%
26-Jun-2024 15:00Clear Sky11°C11 mph, N0%10000m1022hPa54%
26-Jun-2024 18:00Clear Sky16°C11 mph, N0%10000m1018hPa33%
26-Jun-2024 21:00Clear Sky12°C9 mph, N0%10000m1016hPa40%
27-Jun-2024 00:00Clear Sky9°C9 mph, N0%10000m1016hPa51%
27-Jun-2024 03:00Clear Sky8°C9 mph, N3%10000m1016hPa63%
27-Jun-2024 06:00Clear Sky7°C9 mph, N3%10000m1014hPa57%
27-Jun-2024 09:00Broken Clouds7°C9 mph, N73%10000m1013hPa47%
27-Jun-2024 12:00Overcast Clouds8°C9 mph, N87%10000m1012hPa57%
27-Jun-2024 15:00Overcast Clouds17°C16 mph, N96%10000m1009hPa34%
27-Jun-2024 18:00Overcast Clouds22°C20 mph, N97%10000m1005hPa26%
27-Jun-2024 21:00Overcast Clouds19°C18 mph, N100%10000m1003hPa34%
28-Jun-2024 00:00Overcast Clouds16°C13 mph, N100%10000m1004hPa42%
28-Jun-2024 03:00Overcast Clouds13°C0 mph, NW100%10000m1006hPa52%
28-Jun-2024 06:00Overcast Clouds13°C18 mph, S100%10000m1009hPa48%
28-Jun-2024 09:00Overcast Clouds13°C20 mph, S100%10000m1013hPa44%
28-Jun-2024 12:00Overcast Clouds11°C20 mph, S100%10000m1018hPa51%
28-Jun-2024 15:00Overcast Clouds12°C20 mph, S100%10000m1022hPa51%
28-Jun-2024 18:00Overcast Clouds13°C16 mph, S100%10000m1021hPa42%
28-Jun-2024 21:00Overcast Clouds11°C11 mph, S92%10000m1022hPa41%
29-Jun-2024 00:00Scattered Clouds7°C9 mph, S46%10000m1026hPa54%
29-Jun-2024 03:00Clear Sky5°C9 mph, S0%10000m1027hPa60%
29-Jun-2024 06:00Clear Sky3°C7 mph, S0%10000m1028hPa68%
29-Jun-2024 09:00Clear Sky2°C7 mph, S0%10000m1030hPa73%
29-Jun-2024 12:00Clear Sky2°C7 mph, SW0%10000m1033hPa71%
29-Jun-2024 15:00Clear Sky9°C11 mph, S0%10000m1033hPa42%
29-Jun-2024 18:00Clear Sky12°C9 mph, S0%10000m1031hPa30%
29-Jun-2024 21:00Clear Sky8°C7 mph, SE0%10000m1030hPa37%
30-Jun-2024 00:00Clear Sky4°C4 mph, SE1%10000m1031hPa47%
30-Jun-2024 03:00Scattered Clouds3°C2 mph, NE27%10000m1031hPa53%
30-Jun-2024 06:00Broken Clouds3°C4 mph, N57%10000m1030hPa53%
30-Jun-2024 09:00Overcast Clouds3°C7 mph, N100%10000m1029hPa53%
30-Jun-2024 12:00Overcast Clouds3°C7 mph, N98%10000m1030hPa54%
30-Jun-2024 15:00Broken Clouds10°C13 mph, N63%10000m1030hPa37%
30-Jun-2024 18:00Scattered Clouds13°C16 mph, N36%10000m1027hPa30%